createdAt,value
2023-05-01T00:01:15.225Z,8.80
2023-05-01T00:03:41.910Z,8.82
2023-05-01T00:06:08.880Z,8.75
2023-05-01T00:08:35.512Z,8.74
2023-05-01T00:11:05.744Z,8.74
2023-05-01T00:13:32.309Z,8.66
2023-05-01T00:15:58.815Z,8.66
2023-05-01T00:18:25.335Z,8.68
2023-05-01T00:20:51.904Z,8.69
2023-05-01T00:23:18.494Z,8.66
2023-05-01T00:25:44.967Z,8.71
2023-05-01T00:28:11.469Z,8.72
2023-05-01T00:30:38.210Z,8.72
2023-05-01T00:33:04.783Z,8.73
2023-05-01T00:35:31.359Z,8.73
2023-05-01T00:37:58.440Z,8.79
2023-05-01T00:40:25.170Z,8.78
2023-05-01T00:42:51.735Z,8.78
2023-05-01T00:45:18.264Z,8.70
2023-05-01T00:47:44.987Z,8.65
2023-05-01T00:50:11.639Z,8.66
2023-05-01T00:52:38.110Z,8.66
2023-05-01T00:55:05.307Z,8.65
2023-05-01T00:57:32.550Z,8.60
2023-05-01T00:59:59.037Z,8.58
2023-05-01T01:02:27.112Z,8.57
2023-05-01T01:04:53.682Z,8.56
2023-05-01T01:07:37.015Z,8.53
2023-05-01T01:10:29.965Z,8.55
2023-05-01T01:13:07.850Z,8.54
2023-05-01T01:15:38.105Z,8.48
2023-05-01T01:18:21.920Z,8.52
2023-05-01T01:21:08.600Z,8.59
2023-05-01T01:23:53.993Z,8.57
2023-05-01T01:26:38.931Z,8.49
2023-05-01T01:29:17.700Z,8.48
2023-05-01T01:31:57.404Z,8.36
2023-05-01T01:34:30.768Z,8.38
2023-05-01T01:37:14.549Z,8.36
2023-05-01T01:39:58.913Z,8.24
2023-05-01T01:42:26.975Z,8.22
2023-05-01T01:44:55.629Z,8.13
2023-05-01T01:47:24.421Z,8.14
2023-05-01T01:49:52.241Z,8.09
2023-05-01T01:52:19.000Z,8.08
2023-05-01T01:54:49.765Z,8.04
2023-05-01T01:57:16.635Z,8.00
2023-05-01T01:59:43.097Z,7.98
2023-05-01T02:02:09.652Z,7.96
2023-05-01T02:04:36.195Z,8.01
2023-05-01T02:07:02.735Z,8.00
2023-05-01T02:09:29.791Z,7.97
2023-05-01T02:11:56.295Z,7.90
2023-05-01T02:14:23.523Z,7.84
2023-05-01T02:16:50.338Z,7.78
2023-05-01T02:19:17.025Z,7.77
2023-05-01T02:21:43.510Z,7.77
2023-05-01T02:24:10.590Z,7.76
2023-05-01T02:26:41.492Z,7.68
2023-05-01T02:29:08.104Z,7.58
2023-05-01T02:31:34.829Z,7.50
2023-05-01T02:34:01.394Z,7.49
2023-05-01T02:36:28.492Z,7.42
2023-05-01T02:38:54.981Z,7.36
2023-05-01T02:41:22.501Z,7.24
2023-05-01T02:43:51.648Z,7.20
2023-05-01T02:46:18.142Z,7.17
2023-05-01T02:48:44.648Z,7.17
2023-05-01T02:51:11.200Z,7.21
2023-05-01T02:53:39.672Z,7.19
2023-05-01T02:56:07.831Z,7.17
2023-05-01T02:58:34.406Z,7.23
2023-05-01T03:01:00.921Z,7.30
2023-05-01T03:03:30.240Z,7.27
2023-05-01T03:05:57.440Z,7.28
2023-05-01T03:08:24.096Z,7.26
2023-05-01T03:10:50.650Z,7.25
2023-05-01T03:13:17.579Z,7.25
2023-05-01T03:15:44.382Z,7.23
2023-05-01T03:18:10.978Z,7.22
2023-05-01T03:20:37.506Z,7.20
2023-05-01T03:23:04.022Z,7.16
2023-05-01T03:25:30.484Z,7.12
2023-05-01T03:27:56.998Z,7.15
2023-05-01T03:30:23.512Z,7.11
2023-05-01T03:32:51.647Z,7.07
2023-05-01T03:35:18.233Z,7.02
2023-05-01T03:37:44.744Z,7.05
2023-05-01T03:40:13.550Z,7.04
2023-05-01T03:42:40.020Z,7.02
2023-05-01T03:45:06.982Z,6.95
2023-05-01T03:47:33.472Z,6.92
2023-05-01T03:50:00.019Z,6.91
2023-05-01T03:52:26.580Z,6.92
2023-05-01T03:54:53.326Z,6.87
2023-05-01T03:57:23.276Z,6.87
2023-05-01T03:59:49.963Z,6.85
2023-05-01T04:02:16.520Z,6.84
2023-05-01T04:04:43.334Z,6.84
2023-05-01T04:07:09.985Z,6.92
2023-05-01T04:09:36.494Z,6.91
2023-05-01T04:12:03.080Z,6.95
2023-05-01T04:14:30.904Z,6.94
2023-05-01T04:16:58.038Z,6.89
2023-05-01T04:19:24.539Z,6.86
2023-05-01T04:21:50.994Z,6.91
2023-05-01T04:24:17.545Z,6.95
2023-05-01T04:26:43.993Z,6.92
2023-05-01T04:29:10.600Z,6.89
2023-05-01T04:31:37.207Z,6.94
2023-05-01T04:34:03.877Z,6.93
2023-05-01T04:36:32.904Z,6.87
2023-05-01T04:38:59.393Z,6.86
2023-05-01T04:41:25.840Z,6.86
2023-05-01T04:43:52.407Z,6.91
2023-05-01T04:46:18.914Z,6.94
2023-05-01T04:48:45.451Z,7.01
2023-05-01T04:51:11.948Z,7.06
2023-05-01T04:53:38.496Z,7.10
2023-05-01T04:56:05.330Z,7.12
2023-05-01T04:58:31.784Z,7.13
2023-05-01T05:00:58.280Z,7.15
2023-05-01T05:03:24.871Z,7.16
2023-05-01T05:05:51.418Z,7.18
2023-05-01T05:08:17.947Z,7.23
2023-05-01T05:10:44.455Z,7.25
2023-05-01T05:13:10.939Z,7.22
2023-05-01T05:15:37.610Z,7.17
2023-05-01T05:18:04.169Z,7.18
2023-05-01T05:20:30.784Z,7.20
2023-05-01T05:22:57.289Z,7.24
2023-05-01T05:25:24.281Z,7.31
2023-05-01T05:27:50.880Z,7.32
2023-05-01T05:30:17.379Z,7.30
2023-05-01T05:32:44.484Z,7.32
2023-05-01T05:35:11.181Z,7.34
2023-05-01T05:37:37.659Z,7.33
2023-05-01T05:40:04.420Z,7.31
2023-05-01T05:42:31.243Z,7.24
2023-05-01T05:44:57.744Z,7.23
2023-05-01T05:47:24.198Z,7.28
2023-05-01T05:49:50.721Z,7.35
2023-05-01T05:52:17.499Z,7.37
2023-05-01T05:54:45.427Z,7.39
2023-05-01T05:57:11.898Z,7.36
2023-05-01T05:59:38.579Z,7.39
2023-05-01T06:02:05.103Z,7.39
2023-05-01T06:04:31.825Z,7.34
2023-05-01T06:06:58.763Z,7.32
2023-05-01T06:09:26.295Z,7.31
2023-05-01T06:11:52.757Z,7.37
2023-05-01T06:14:19.213Z,7.34
2023-05-01T06:16:45.681Z,7.33
2023-05-01T06:19:12.245Z,7.30
2023-05-01T06:21:38.781Z,7.40
2023-05-01T06:24:05.345Z,7.42
2023-05-01T06:26:31.806Z,7.38
2023-05-01T06:28:58.291Z,7.35
2023-05-01T06:31:24.849Z,7.31
2023-05-01T06:33:51.347Z,7.25
2023-05-01T06:36:17.813Z,7.21
2023-05-01T06:38:48.598Z,7.16
2023-05-01T06:41:16.296Z,7.20
2023-05-01T06:43:42.812Z,7.25
2023-05-01T06:46:09.338Z,7.31
2023-05-01T06:48:35.876Z,7.31
2023-05-01T06:51:02.329Z,7.32
2023-05-01T06:53:28.778Z,7.36
2023-05-01T06:55:55.280Z,7.45
2023-05-01T06:58:24.052Z,7.51
2023-05-01T07:00:51.101Z,7.52
2023-05-01T07:03:17.755Z,7.57
2023-05-01T07:05:44.429Z,7.68
2023-05-01T07:08:11.126Z,7.72
2023-05-01T07:10:39.286Z,7.79
2023-05-01T07:13:09.958Z,7.87
2023-05-01T07:15:36.643Z,7.99
2023-05-01T07:18:05.832Z,8.03
2023-05-01T07:20:32.727Z,7.97
2023-05-01T07:22:59.223Z,7.92
2023-05-01T07:25:25.867Z,7.87
2023-05-01T07:27:52.655Z,7.95
2023-05-01T07:30:19.194Z,8.15
2023-05-01T07:32:45.717Z,8.25
2023-05-01T07:35:12.207Z,8.30
2023-05-01T07:37:38.703Z,8.43
2023-05-01T07:40:05.692Z,8.46
2023-05-01T07:42:32.190Z,8.50
2023-05-01T07:44:58.674Z,8.56
2023-05-01T07:47:25.315Z,8.56
2023-05-01T07:49:51.813Z,8.67
2023-05-01T07:52:18.288Z,8.67
2023-05-01T07:54:49.649Z,8.56
2023-05-01T07:57:16.510Z,8.61
2023-05-01T07:59:43.204Z,8.55
2023-05-01T08:02:09.683Z,8.62
2023-05-01T08:04:36.242Z,8.76
2023-05-01T08:07:02.862Z,8.76
2023-05-01T08:09:29.338Z,8.78
2023-05-01T08:11:55.800Z,8.93
2023-05-01T08:14:22.319Z,9.16
2023-05-01T08:16:54.207Z,9.26
2023-05-01T08:19:21.105Z,9.21
2023-05-01T08:21:47.583Z,9.27
2023-05-01T08:24:14.030Z,9.30
2023-05-01T08:26:40.496Z,9.40
2023-05-01T08:29:07.019Z,9.42
2023-05-01T08:31:35.835Z,9.40
2023-05-01T08:34:02.386Z,9.47
2023-05-01T08:36:28.859Z,9.42
2023-05-01T08:38:55.324Z,9.40
2023-05-01T08:41:22.156Z,9.47
2023-05-01T08:43:48.861Z,9.50
2023-05-01T08:46:39.139Z,9.59
2023-05-01T08:49:05.669Z,9.72
2023-05-01T08:51:32.134Z,9.85
2023-05-01T08:53:58.664Z,10.02
2023-05-01T08:56:25.254Z,10.23
2023-05-01T08:58:51.712Z,10.32
2023-05-01T09:01:18.245Z,10.30
2023-05-01T09:03:44.882Z,10.36
2023-05-01T09:06:11.831Z,10.44
2023-05-01T09:08:38.389Z,10.62
2023-05-01T09:11:04.852Z,10.75
2023-05-01T09:13:31.551Z,10.76
2023-05-01T09:15:58.138Z,10.82
2023-05-01T09:18:25.349Z,10.81
2023-05-01T09:20:51.984Z,10.65
2023-05-01T09:23:20.215Z,10.41
2023-05-01T09:25:46.724Z,10.28
2023-05-01T09:28:13.193Z,10.17
2023-05-01T09:30:39.781Z,10.17
2023-05-01T09:33:14.064Z,10.18
2023-05-01T09:35:56.276Z,10.13
2023-05-01T09:38:27.072Z,10.01
2023-05-01T09:40:56.388Z,9.81
2023-05-01T09:43:27.276Z,9.73
2023-05-01T09:46:05.279Z,9.68
2023-05-01T09:48:35.020Z,9.73
2023-05-01T09:51:02.630Z,9.76
2023-05-01T09:53:39.266Z,9.92
2023-05-01T09:56:06.567Z,10.05
2023-05-01T09:58:33.036Z,10.14
2023-05-01T10:01:00.261Z,10.19
2023-05-01T10:03:27.278Z,10.27
2023-05-01T10:05:56.839Z,10.28
2023-05-01T10:08:24.104Z,10.34
2023-05-01T10:11:02.548Z,10.42
2023-05-01T10:13:30.779Z,10.50
2023-05-01T10:15:57.244Z,10.48
2023-05-01T10:18:23.955Z,10.41
2023-05-01T10:20:51.536Z,10.40
2023-05-01T10:23:18.381Z,10.40
2023-05-01T10:25:44.861Z,10.39
2023-05-01T10:28:11.636Z,10.42
2023-05-01T10:30:38.138Z,10.31
2023-05-01T10:33:04.902Z,10.12
2023-05-01T10:35:33.369Z,10.06
2023-05-01T10:38:05.236Z,10.11
2023-05-01T10:40:41.017Z,10.24
2023-05-01T10:43:30.191Z,10.30
2023-05-01T10:48:54.332Z,10.35
2023-05-01T10:51:27.566Z,10.53
2023-05-01T10:54:13.189Z,10.62
2023-05-01T10:56:39.534Z,10.69
2023-05-01T10:59:06.367Z,10.67
2023-05-01T11:01:39.859Z,10.81
2023-05-01T11:04:24.642Z,10.89
2023-05-01T11:07:07.794Z,11.09
2023-05-01T11:09:44.876Z,11.27
2023-05-01T11:12:12.440Z,11.29
2023-05-01T11:15:05.272Z,11.34
2023-05-01T11:17:41.366Z,11.30
2023-05-01T11:20:08.518Z,11.26
2023-05-01T11:22:35.987Z,11.12
2023-05-01T11:25:05.711Z,11.05
2023-05-01T11:27:32.219Z,11.01
2023-05-01T11:29:58.833Z,10.86
2023-05-01T11:32:27.547Z,10.92
2023-05-01T11:34:54.735Z,10.79
2023-05-01T11:37:41.598Z,10.58
2023-05-01T11:40:22.111Z,10.43
2023-05-01T11:42:49.073Z,10.38
2023-05-01T11:45:15.667Z,10.40
2023-05-01T11:47:42.200Z,10.46
2023-05-01T11:50:09.457Z,10.38
2023-05-01T11:52:46.530Z,10.68
2023-05-01T11:55:13.138Z,10.86
2023-05-01T11:57:50.401Z,10.82
2023-05-01T12:00:27.169Z,10.88
2023-05-01T12:03:03.584Z,10.86
2023-05-01T12:05:30.924Z,10.74
2023-05-01T12:08:20.514Z,10.55
2023-05-01T12:10:56.109Z,10.65
2023-05-01T12:13:22.756Z,10.77
2023-05-01T12:15:55.978Z,10.82
2023-05-01T12:18:22.529Z,10.93
2023-05-01T12:20:52.967Z,11.03
2023-05-01T12:23:20.743Z,11.14
2023-05-01T12:25:47.401Z,11.29
2023-05-01T12:28:18.331Z,11.41
2023-05-01T12:30:46.102Z,11.53
2023-05-01T12:33:14.161Z,11.58
2023-05-01T12:35:41.142Z,11.74
2023-05-01T12:38:15.498Z,11.99
2023-05-01T12:40:57.811Z,12.18
2023-05-01T12:43:34.516Z,12.35
2023-05-01T12:46:01.121Z,12.23
2023-05-01T12:48:27.910Z,12.09
2023-05-01T12:50:55.110Z,11.95
2023-05-01T12:53:23.219Z,11.82
2023-05-01T12:55:51.083Z,11.61
2023-05-01T12:58:17.732Z,11.42
2023-05-01T13:00:49.135Z,11.40
2023-05-01T13:03:18.503Z,11.23
2023-05-01T13:05:54.967Z,11.14
2023-05-01T13:08:29.492Z,11.04
2023-05-01T13:10:57.291Z,10.96
2023-05-01T13:13:28.130Z,10.98
2023-05-01T13:15:54.803Z,11.01
2023-05-01T13:18:21.886Z,11.11
2023-05-01T13:20:48.378Z,11.32
2023-05-01T13:23:14.954Z,11.51
2023-05-01T13:25:41.498Z,11.63
2023-05-01T13:28:09.263Z,11.64
2023-05-01T13:30:35.826Z,11.64
2023-05-01T13:33:05.121Z,11.50
2023-05-01T13:35:31.666Z,11.48
2023-05-01T13:37:58.163Z,11.61
2023-05-01T13:40:24.632Z,11.67
2023-05-01T13:42:52.635Z,11.68
2023-05-01T13:45:20.144Z,11.74
2023-05-01T13:47:46.687Z,11.66
2023-05-01T13:50:13.480Z,11.58
2023-05-01T13:52:42.416Z,11.46
2023-05-01T13:55:09.088Z,11.38
2023-05-01T13:57:37.639Z,11.35
2023-05-01T14:00:08.122Z,11.36
2023-05-01T14:02:35.346Z,11.30
2023-05-01T14:05:02.089Z,11.14
2023-05-01T14:07:28.659Z,11.00
2023-05-01T14:09:59.665Z,10.89
2023-05-01T14:12:32.275Z,10.76
2023-05-01T14:15:00.157Z,10.71
2023-05-01T14:17:29.812Z,10.69
2023-05-01T14:19:56.303Z,10.56
2023-05-01T14:22:22.824Z,10.29
2023-05-01T14:24:50.008Z,10.24
2023-05-01T14:27:16.562Z,10.29
2023-05-01T14:29:46.441Z,10.21
2023-05-01T14:32:13.239Z,10.04
2023-05-01T14:34:41.036Z,9.97
2023-05-01T14:37:07.511Z,9.92
2023-05-01T14:39:34.016Z,9.88
2023-05-01T14:42:00.533Z,9.91
2023-05-01T14:44:28.442Z,9.98
2023-05-01T14:46:55.015Z,10.03
2023-05-01T14:49:22.714Z,10.07
2023-05-01T14:51:49.248Z,10.06
2023-05-01T14:54:16.088Z,9.96
2023-05-01T14:56:42.792Z,10.03
2023-05-01T14:59:09.302Z,10.05
2023-05-01T15:01:36.150Z,10.14
2023-05-01T15:04:03.917Z,10.19
2023-05-01T15:06:30.764Z,10.33
2023-05-01T15:08:57.251Z,10.33
2023-05-01T15:11:23.720Z,10.28
2023-05-01T15:13:50.482Z,10.21
2023-05-01T15:16:17.239Z,10.29
2023-05-01T15:18:43.844Z,10.43
2023-05-01T15:21:10.320Z,10.45
2023-05-01T15:23:37.200Z,10.51
2023-05-01T15:26:03.915Z,10.68
2023-05-01T15:28:30.531Z,10.76
2023-05-01T15:30:57.130Z,10.73
2023-05-01T15:33:23.814Z,10.68
2023-05-01T15:35:52.605Z,10.65
2023-05-01T15:38:20.916Z,10.66
2023-05-01T15:40:47.460Z,10.59
2023-05-01T15:43:13.926Z,10.57
2023-05-01T15:45:43.476Z,10.60
2023-05-01T15:48:11.313Z,10.59
2023-05-01T15:50:37.867Z,10.48
2023-05-01T15:53:04.549Z,10.44
2023-05-01T15:55:31.186Z,10.35
2023-05-01T15:57:57.676Z,10.31
2023-05-01T16:00:24.822Z,10.21
2023-05-01T16:02:51.464Z,10.11
2023-05-01T16:05:19.162Z,9.97
2023-05-01T16:07:46.117Z,9.92
2023-05-01T16:10:12.604Z,9.79
2023-05-01T16:12:39.098Z,9.62
2023-05-01T16:15:05.953Z,9.47
2023-05-01T16:17:42.226Z,9.34
2023-05-01T16:20:13.044Z,9.17
2023-05-01T16:22:40.554Z,9.12
2023-05-01T16:25:08.468Z,9.04
2023-05-01T16:27:35.240Z,9.04
2023-05-01T16:30:04.664Z,8.97
2023-05-01T16:32:31.153Z,8.97
2023-05-01T16:34:57.659Z,8.95
2023-05-01T16:37:24.111Z,8.92
2023-05-01T16:39:50.628Z,8.87
2023-05-01T16:42:17.077Z,8.83
2023-05-01T16:44:43.540Z,8.84
2023-05-01T16:47:11.288Z,8.82
2023-05-01T16:49:37.732Z,8.82
2023-05-01T16:52:04.691Z,8.79
2023-05-01T16:54:36.095Z,8.78
2023-05-01T16:57:05.422Z,8.79
2023-05-01T16:59:32.415Z,8.76
2023-05-01T17:01:58.991Z,8.67
2023-05-01T17:04:26.003Z,8.63
2023-05-01T17:06:52.703Z,8.59
2023-05-01T17:09:19.243Z,8.61
2023-05-01T17:11:46.235Z,8.61
2023-05-01T17:14:12.706Z,8.55
2023-05-01T17:16:40.332Z,8.54
2023-05-01T17:19:09.636Z,8.59
2023-05-01T17:21:36.207Z,8.61
2023-05-01T17:24:02.763Z,8.64
2023-05-01T17:26:29.234Z,8.66
2023-05-01T17:28:55.714Z,8.64
2023-05-01T17:31:22.857Z,8.51
2023-05-01T17:33:49.539Z,8.47
2023-05-01T17:36:16.238Z,8.40
2023-05-01T17:38:42.704Z,8.28
2023-05-01T17:41:09.158Z,8.20
2023-05-01T17:43:35.720Z,8.13
2023-05-01T17:46:02.337Z,8.11
2023-05-01T17:48:28.841Z,8.00
2023-05-01T17:50:55.805Z,7.81
2023-05-01T17:53:23.221Z,7.77
2023-05-01T17:55:49.743Z,7.70
2023-05-01T17:58:16.291Z,7.65
2023-05-01T18:00:42.876Z,7.61
2023-05-01T18:03:09.470Z,7.57
2023-05-01T18:05:36.057Z,7.51
2023-05-01T18:08:02.559Z,7.41
2023-05-01T18:10:31.153Z,7.34
2023-05-01T18:12:58.216Z,7.25
2023-05-01T18:15:24.932Z,7.17
2023-05-01T18:17:51.854Z,7.16
2023-05-01T18:20:18.534Z,7.11
2023-05-01T18:22:45.302Z,7.10
2023-05-01T18:25:12.421Z,7.09
2023-05-01T18:27:41.319Z,7.07
2023-05-01T18:30:08.690Z,7.03
2023-05-01T18:32:46.755Z,7.01
2023-05-01T18:35:14.361Z,6.97
2023-05-01T18:37:42.296Z,6.94
2023-05-01T18:40:09.581Z,6.93
2023-05-01T18:42:36.132Z,6.93
2023-05-01T18:45:03.993Z,6.93
2023-05-01T18:47:32.334Z,6.93
2023-05-01T18:49:59.258Z,6.93
2023-05-01T18:52:25.962Z,6.95
2023-05-01T18:54:52.494Z,6.96
2023-05-01T18:57:18.968Z,7.01
2023-05-01T18:59:45.427Z,6.93
2023-05-01T19:02:11.964Z,6.85
2023-05-01T19:04:55.825Z,6.77
2023-05-01T19:07:23.712Z,6.73
2023-05-01T19:09:50.202Z,6.67
2023-05-01T19:12:16.693Z,6.65
2023-05-01T19:14:43.201Z,6.63
2023-05-01T19:17:09.897Z,6.62
2023-05-01T19:19:36.388Z,6.65
2023-05-01T19:22:03.993Z,6.58
2023-05-01T19:24:30.575Z,6.57
2023-05-01T19:26:57.115Z,6.56
2023-05-01T19:29:23.700Z,6.52
2023-05-01T19:31:50.426Z,6.52
2023-05-01T19:34:17.041Z,6.51
2023-05-01T19:36:43.506Z,6.50
2023-05-01T19:39:10.131Z,6.47
2023-05-01T19:41:36.962Z,6.42
2023-05-01T19:44:03.537Z,6.44
2023-05-01T19:46:30.111Z,6.38
2023-05-01T19:48:56.639Z,6.31
2023-05-01T19:51:23.156Z,6.26
2023-05-01T19:53:49.631Z,6.23
2023-05-01T19:56:16.166Z,6.19
2023-05-01T19:58:42.622Z,6.13
2023-05-01T20:01:11.700Z,6.12
2023-05-01T20:03:38.505Z,6.10
2023-05-01T20:06:06.306Z,6.09
2023-05-01T20:08:33.571Z,6.10
2023-05-01T20:11:01.010Z,6.08
2023-05-01T20:13:27.529Z,6.12
2023-05-01T20:15:54.092Z,6.18
2023-05-01T20:18:20.740Z,6.21
2023-05-01T20:20:47.217Z,6.20
2023-05-01T20:23:14.712Z,6.21
2023-05-01T20:25:41.450Z,6.25
2023-05-01T20:28:09.418Z,6.25
2023-05-01T20:30:43.439Z,6.26
2023-05-01T20:33:10.019Z,6.27
2023-05-01T20:35:36.916Z,6.21
2023-05-01T20:38:04.334Z,6.21
2023-05-01T20:40:31.832Z,6.19
2023-05-01T20:43:01.938Z,6.13
2023-05-01T20:45:31.404Z,6.13
2023-05-01T20:47:58.470Z,6.09
2023-05-01T20:50:25.828Z,6.10
2023-05-01T20:52:53.377Z,6.15
2023-05-01T20:55:19.838Z,6.20
2023-05-01T20:57:46.323Z,6.27
2023-05-01T21:00:13.290Z,6.32
2023-05-01T21:02:40.521Z,6.34
2023-05-01T21:05:08.878Z,6.36
2023-05-01T21:07:37.304Z,6.37
2023-05-01T21:10:09.008Z,6.29
2023-05-01T21:12:35.545Z,6.20
2023-05-01T21:15:02.673Z,6.17
2023-05-01T21:17:33.059Z,6.16
2023-05-01T21:19:59.890Z,6.16
2023-05-01T21:22:26.760Z,6.14
2023-05-01T21:24:54.506Z,6.11
2023-05-01T21:27:21.446Z,6.16
2023-05-01T21:29:52.498Z,6.19
2023-05-01T21:32:18.984Z,6.26
2023-05-01T21:34:45.436Z,6.26
2023-05-01T21:37:13.848Z,6.21
2023-05-01T21:39:40.526Z,6.29
2023-05-01T21:42:06.982Z,6.27
2023-05-01T21:44:33.450Z,6.30
2023-05-01T21:47:00.857Z,6.26
2023-05-01T21:49:27.375Z,6.27
2023-05-01T21:51:54.372Z,6.22
2023-05-01T21:54:21.717Z,6.14
2023-05-01T21:56:48.317Z,6.12
2023-05-01T21:59:14.940Z,6.10
2023-05-01T22:01:41.582Z,6.09
2023-05-01T22:04:08.359Z,6.09
2023-05-01T22:06:35.049Z,6.09
2023-05-01T22:09:01.605Z,6.08
2023-05-01T22:11:28.082Z,5.99
2023-05-01T22:13:54.611Z,5.95
2023-05-01T22:16:21.105Z,5.96
2023-05-01T22:18:49.797Z,5.94
2023-05-01T22:21:16.778Z,5.92
2023-05-01T22:23:43.229Z,5.93
2023-05-01T22:26:09.835Z,5.86
2023-05-01T22:28:36.415Z,5.84
2023-05-01T22:31:03.231Z,5.77
2023-05-01T22:33:29.707Z,5.75
2023-05-01T22:35:56.198Z,5.77
2023-05-01T22:38:22.713Z,5.80
2023-05-01T22:40:49.233Z,5.79
2023-05-01T22:43:16.177Z,5.82
2023-05-01T22:45:42.909Z,5.82
2023-05-01T22:48:09.457Z,5.87
2023-05-01T22:50:35.988Z,5.92
2023-05-01T22:53:02.474Z,5.94
2023-05-01T22:55:29.046Z,5.90
2023-05-01T22:57:55.602Z,5.89
2023-05-01T23:00:23.349Z,5.92
2023-05-01T23:02:50.692Z,5.92
2023-05-01T23:05:17.870Z,5.94
2023-05-01T23:07:44.507Z,5.94
2023-05-01T23:10:11.195Z,5.94
2023-05-01T23:12:40.381Z,5.95
2023-05-01T23:15:09.165Z,5.97
2023-05-01T23:17:36.009Z,6.04
2023-05-01T23:20:02.649Z,6.13
2023-05-01T23:22:29.735Z,6.23
2023-05-01T23:24:56.197Z,6.27
2023-05-01T23:27:22.780Z,6.25
2023-05-01T23:29:54.021Z,6.28
2023-05-01T23:32:30.691Z,6.34
2023-05-01T23:35:24.122Z,6.38
2023-05-01T23:37:52.742Z,6.45
2023-05-01T23:40:19.610Z,6.47
2023-05-01T23:42:46.559Z,6.50
2023-05-01T23:45:13.072Z,6.49
2023-05-01T23:47:39.587Z,6.48
2023-05-01T23:50:06.707Z,6.50
2023-05-01T23:52:33.201Z,6.50
2023-05-01T23:54:59.785Z,6.45
2023-05-01T23:57:26.283Z,6.48
2023-05-01T23:59:52.804Z,6.52
